Minneapolis, Minnesota
Traffic Map
Current Weather Conditions
Minneapolis, Minnesota
Overcast
Overcast
76°
Feels Like: 76°
Wind Chill: 76° Ceiling: 12000
Heat Index: 76° Visibility: 10mi
Dew Point: 67° Wind: 6mph
Humidity: 74% Direction: 200° (SSW)
Pressure: 29.98in Gusts: 0mph
Raw Report DataKMSP 271253Z 20005KT 10SM BKN120 OVC130 24/19 A2998 RMK AO2 SLP145 T02440194
Traffic Incident Summary
Active as of:
Severity:
Category:
InformationThere was an issue retrieving the traffic information for this location. Please try a different location or try again shortly.
Advertisements
Track Severe Weather on mobile